Bergamot Ace — ZGAS5 — position and weather

sailwx.info

Track history (hours):
 
Tides and Currents Weather Stations Pressure Air Temp Water Temp Dewpoint Dewpoint Depression Visibility Wind Speed Wind Dir Waves Ship Positions

Bergamot Ace

Last reported at 2016-Dec-05 12:24 UTC. Time now 2016-Dec-05 12:39 UTC.
Position S 32°14' E 152°52'.

Length 186 m; draft 7 m.

Type: Cargo ship. MMSI: 319740000.

Date/timePositionNaut miles runAvg speedWind from/ knotsBaromVisibWave heightAir tempDewpointWater temp
2016-Dec-05 12:24S 32°14' E 152°52'1416.9
2016-Dec-05 11:33S 32°27' E 152°47'1717.2
2016-Dec-05 10:33S 32°42' E 152°36'1716.8
2016-Dec-05 09:33S 32°55' E 152°24'1616.3
2016-Dec-05 08:33S 33°09' E 152°14'1616.4
2016-Dec-05 07:33S 33°22' E 152°02'2316.3
2016-Dec-05 06:09S 33°42' E 151°48'1017.0
2016-Dec-05 05:33S 33°50' E 151°41'1717.3
2016-Dec-05 04:33S 34°05' E 151°29'37 5.2
2016-Dec-04 21:20S 34°27' E 150°53'0 0.0
2016-Dec-04 20:32S 34°27' E 150°53'0 0.0
2016-Dec-04 18:17S 34°27' E 150°53'6 3.5
2016-Dec-04 16:29S 34°25' E 151°00'3 1.5
2016-Dec-04 14:28S 34°26' E 151°03'  
2016-Nov-30 10:33S 35°06' E 137°59'  
Track history (hours):
 
Tides and Currents Weather Stations Pressure Air Temp Water Temp Dewpoint Dewpoint Depression Visibility Wind Speed Wind Dir Waves Ship Positions

Bergamot Ace

Last reported at 2016-Dec-05 12:24 UTC. Time now 2016-Dec-05 12:39 UTC.
Position S 32°14' E 152°52'.

Length 186 m; draft 7 m.

Type: Cargo ship. MMSI: 319740000.

Date/timePositionNaut miles runAvg speedWind from/ knotsBaromVisibWave heightAir tempDewpointWater temp
2016-Dec-05 12:24S 32°14' E 152°52'1416.9
2016-Dec-05 11:33S 32°27' E 152°47'1717.2
2016-Dec-05 10:33S 32°42' E 152°36'1716.8
2016-Dec-05 09:33S 32°55' E 152°24'1616.3
2016-Dec-05 08:33S 33°09' E 152°14'1616.4
2016-Dec-05 07:33S 33°22' E 152°02'2316.3
2016-Dec-05 06:09S 33°42' E 151°48'1017.0
2016-Dec-05 05:33S 33°50' E 151°41'1717.3
2016-Dec-05 04:33S 34°05' E 151°29'37 5.2
2016-Dec-04 21:20S 34°27' E 150°53'0 0.0
2016-Dec-04 20:32S 34°27' E 150°53'0 0.0
2016-Dec-04 18:17S 34°27' E 150°53'6 3.5
2016-Dec-04 16:29S 34°25' E 151°00'3 1.5
2016-Dec-04 14:28S 34°26' E 151°03'  
2016-Nov-30 10:33S 35°06' E 137°59'  

Dump ship's entire track history